Terminal Aerodrome Forecast
Issued by NWS

Home | Current Version | Previous Version | Text Only | Print | Product List | Glossary On
Versions: 1 2 3 4 5 6 7 8 9 10 11 12 13 14 15 16 17 18
000
FTUS43 KTOP 010900 AAA
TAFFOE
TAF AMD
KFOE 010927Z 0109/0206 15007KT 3SM -RASN BR BKN012 OVC025
     FM011200 32016G28KT 5SM -SN BR OVC007
     FM011800 32025G34KT 5SM -SN BR OVC008
     FM012200 32023G33KT P6SM OVC010
     FM020100 33017G22KT P6SM OVC013=

USA.gov is the U.S. government's official web portal to all federal, state and local government web resources and services.